Cornell, Iowa
Current Conditions -  °F | °C
As of 8:53 PM on Monday 20 Oct 2014 (Local Time) from KSPW Reporting Station
Clear Clear  
Wind Chill: 47°   Ceiling: Unl
Heat Index: 47°   Visibility: 10mi
Dew Point: 37°   Wind: 0mph
Humidity: 68%   Direction: NA
Pressure: 30.04"   Gusts: NA
Location:  42.9244°N, 95.1316°W
Report Text: KSPW 210153Z AUTO 00000KT 10SM CLR 08/03 A3004 RMK AO2 SLP180 T00830028 TSNO
Loading
Personal Weather Stations






























Interactive Weather Map
Tropical Storm Tracking
New forecast layout! Learn more

10-Day Weather Forecast

Advertisements
Track Severe Weather on mobile